Baltimore, Maryland
Traffic Map
Current Weather Conditions
Baltimore, Maryland
Broken Clouds
Broken Clouds
20°
Feels Like: 20°
Wind Chill: 20° Ceiling: 25000
Heat Index: 20° Visibility: 10mi
Dew Point: 17° Wind: 0mph
Humidity: 84% Direction: ° ()
Pressure: 29.97in Gusts: 0mph
Raw Report DataKBWI 010754Z 00000KT 10SM FEW050 BKN250 20/17 A2997 RMK AO2 SLP148 T02000172
Traffic Incident Summary
Active as of:
Severity:
Category:
InformationThere was an issue retrieving the traffic information for this location. Please try a different location or try again shortly.
Advertisements
Track Severe Weather on mobile